sensor_id;sensor_type;location;lat;lon;timestamp;P1;durP1;ratioP1;P2;durP2;ratioP2
61638;SDS011;47544;52.484;4.658;2023-07-29T00:00:05;4.55;;;1.50;;
61638;SDS011;47544;52.484;4.658;2023-07-29T00:00:18;5.00;;;1.40;;
61638;SDS011;47544;52.484;4.658;2023-07-29T00:00:33;4.47;;;1.30;;
61638;SDS011;47544;52.484;4.658;2023-07-29T00:00:44;4.17;;;1.43;;
61638;SDS011;47544;52.484;4.658;2023-07-29T00:00:56;4.75;;;1.60;;
61638;SDS011;47544;52.484;4.658;2023-07-29T00:01:07;4.82;;;1.48;;
61638;SDS011;47544;52.484;4.658;2023-07-29T00:01:19;4.85;;;1.40;;
61638;SDS011;47544;52.484;4.658;2023-07-29T00:01:31;4.97;;;1.27;;
61638;SDS011;47544;52.484;4.658;2023-07-29T00:01:42;4.95;;;1.30;;
61638;SDS011;47544;52.484;4.658;2023-07-29T00:01:53;5.22;;;1.30;;
61638;SDS011;47544;52.484;4.658;2023-07-29T00:02:05;5.57;;;1.33;;
61638;SDS011;47544;52.484;4.658;2023-07-29T00:02:16;7.10;;;1.58;;
61638;SDS011;47544;52.484;4.658;2023-07-29T00:02:29;6.93;;;1.67;;
61638;SDS011;47544;52.484;4.658;2023-07-29T00:02:43;4.85;;;1.40;;
61638;SDS011;47544;52.484;4.658;2023-07-29T00:02:54;5.40;;;1.48;;
61638;SDS011;47544;52.484;4.658;2023-07-29T00:03:05;5.88;;;1.58;;
61638;SDS011;47544;52.484;4.658;2023-07-29T00:03:17;5.65;;;1.35;;
61638;SDS011;47544;52.484;4.658;2023-07-29T00:03:28;4.38;;;1.20;;
61638;SDS011;47544;52.484;4.658;2023-07-29T00:03:41;4.60;;;1.10;;
61638;SDS011;47544;52.484;4.658;2023-07-29T00:03:52;5.28;;;1.30;;
61638;SDS011;47544;52.484;4.658;2023-07-29T00:04:03;5.60;;;1.55;;
61638;SDS011;47544;52.484;4.658;2023-07-29T00:04:15;7.57;;;1.75;;
61638;SDS011;47544;52.484;4.658;2023-07-29T00:04:28;7.65;;;1.80;;
61638;SDS011;47544;52.484;4.658;2023-07-29T00:04:40;6.50;;;1.45;;
61638;SDS011;47544;52.484;4.658;2023-07-29T00:04:51;5.82;;;1.35;;
61638;SDS011;47544;52.484;4.658;2023-07-29T00:05:02;6.95;;;1.52;;
61638;SDS011;47544;52.484;4.658;2023-07-29T00:05:13;7.57;;;1.63;;
61638;SDS011;47544;52.484;4.658;2023-07-29T00:05:24;6.60;;;1.73;;
61638;SDS011;47544;52.484;4.658;2023-07-29T00:05:36;5.28;;;1.50;;
61638;SDS011;47544;52.484;4.658;2023-07-29T00:05:47;6.15;;;1.40;;
61638;SDS011;47544;52.484;4.658;2023-07-29T00:05:58;6.30;;;1.48;;
61638;SDS011;47544;52.484;4.658;2023-07-29T00:06:13;6.75;;;1.63;;
61638;SDS011;47544;52.484;4.658;2023-07-29T00:06:24;6.53;;;1.70;;
61638;SDS011;47544;52.484;4.658;2023-07-29T00:06:35;6.45;;;1.65;;
61638;SDS011;47544;52.484;4.658;2023-07-29T00:06:46;5.22;;;1.40;;
61638;SDS011;47544;52.484;4.658;2023-07-29T00:06:58;4.25;;;1.27;;
61638;SDS011;47544;52.484;4.658;2023-07-29T00:07:11;4.35;;;1.25;;
61638;SDS011;47544;52.484;4.658;2023-07-29T00:07:22;4.75;;;1.30;;
61638;SDS011;47544;52.484;4.658;2023-07-29T00:07:33;4.60;;;1.30;;
61638;SDS011;47544;52.484;4.658;2023-07-29T00:07:44;4.15;;;1.25;;
61638;SDS011;47544;52.484;4.658;2023-07-29T00:07:55;4.78;;;1.40;;
61638;SDS011;47544;52.484;4.658;2023-07-29T00:08:06;4.85;;;1.30;;
61638;SDS011;47544;52.484;4.658;2023-07-29T00:08:21;4.32;;;1.17;;
61638;SDS011;47544;52.484;4.658;2023-07-29T00:08:32;4.60;;;1.25;;
61638;SDS011;47544;52.484;4.658;2023-07-29T00:08:43;4.22;;;1.20;;
61638;SDS011;47544;52.484;4.658;2023-07-29T00:08:54;3.53;;;1.10;;
61638;SDS011;47544;52.484;4.658;2023-07-29T00:09:05;3.85;;;1.05;;
61638;SDS011;47544;52.484;4.658;2023-07-29T00:09:17;5.40;;;1.20;;
61638;SDS011;47544;52.484;4.658;2023-07-29T00:09:28;5.97;;;1.38;;
61638;SDS011;47544;52.484;4.658;2023-07-29T00:09:42;6.82;;;1.42;;
61638;SDS011;47544;52.484;4.658;2023-07-29T00:09:53;5.65;;;1.40;;
61638;SDS011;47544;52.484;4.658;2023-07-29T00:10:06;4.90;;;1.40;;
61638;SDS011;47544;52.484;4.658;2023-07-29T00:10:18;4.35;;;1.25;;
61638;SDS011;47544;52.484;4.658;2023-07-29T00:10:30;4.43;;;1.30;;
61638;SDS011;47544;52.484;4.658;2023-07-29T00:10:44;4.32;;;1.40;;
61638;SDS011;47544;52.484;4.658;2023-07-29T00:10:55;3.85;;;1.30;;
61638;SDS011;47544;52.484;4.658;2023-07-29T00:11:06;4.20;;;1.40;;
61638;SDS011;47544;52.484;4.658;2023-07-29T00:11:17;5.72;;;1.40;;
61638;SDS011;47544;52.484;4.658;2023-07-29T00:11:28;5.72;;;1.45;;
61638;SDS011;47544;52.484;4.658;2023-07-29T00:11:41;5.05;;;1.50;;
61638;SDS011;47544;52.484;4.658;2023-07-29T00:11:52;4.25;;;1.48;;
61638;SDS011;47544;52.484;4.658;2023-07-29T00:12:03;4.53;;;1.40;;
61638;SDS011;47544;52.484;4.658;2023-07-29T00:12:14;5.78;;;1.40;;
61638;SDS011;47544;52.484;4.658;2023-07-29T00:12:25;6.60;;;1.40;;
61638;SDS011;47544;52.484;4.658;2023-07-29T00:12:36;7.45;;;1.50;;
61638;SDS011;47544;52.484;4.658;2023-07-29T00:12:47;5.45;;;1.38;;
61638;SDS011;47544;52.484;4.658;2023-07-29T00:12:58;5.65;;;1.40;;
61638;SDS011;47544;52.484;4.658;2023-07-29T00:13:09;5.72;;;1.40;;
61638;SDS011;47544;52.484;4.658;2023-07-29T00:13:20;5.97;;;1.40;;
61638;SDS011;47544;52.484;4.658;2023-07-29T00:13:32;4.95;;;1.40;;
61638;SDS011;47544;52.484;4.658;2023-07-29T00:13:43;4.97;;;1.37;;
61638;SDS011;47544;52.484;4.658;2023-07-29T00:13:54;4.60;;;1.23;;
61638;SDS011;47544;52.484;4.658;2023-07-29T00:14:05;3.47;;;1.20;;
61638;SDS011;47544;52.484;4.658;2023-07-29T00:14:16;3.42;;;1.20;;
61638;SDS011;47544;52.484;4.658;2023-07-29T00:14:27;4.05;;;1.40;;
61638;SDS011;47544;52.484;4.658;2023-07-29T00:14:38;3.88;;;1.40;;
61638;SDS011;47544;52.484;4.658;2023-07-29T00:14:49;3.83;;;1.38;;
61638;SDS011;47544;52.484;4.658;2023-07-29T00:15:00;3.70;;;1.33;;
61638;SDS011;47544;52.484;4.658;2023-07-29T00:15:13;4.38;;;1.38;;
61638;SDS011;47544;52.484;4.658;2023-07-29T00:15:25;4.13;;;1.23;;
61638;SDS011;47544;52.484;4.658;2023-07-29T00:15:36;4.65;;;1.20;;
61638;SDS011;47544;52.484;4.658;2023-07-29T00:15:47;4.28;;;1.20;;
61638;SDS011;47544;52.484;4.658;2023-07-29T00:15:58;4.95;;;1.33;;
61638;SDS011;47544;52.484;4.658;2023-07-29T00:16:09;5.72;;;1.48;;
61638;SDS011;47544;52.484;4.658;2023-07-29T00:16:20;5.80;;;1.40;;
61638;SDS011;47544;52.484;4.658;2023-07-29T00:16:32;4.10;;;1.20;;
61638;SDS011;47544;52.484;4.658;2023-07-29T00:16:43;3.40;;;1.10;;
61638;SDS011;47544;52.484;4.658;2023-07-29T00:16:54;3.90;;;1.17;;
61638;SDS011;47544;52.484;4.658;2023-07-29T00:17:06;5.00;;;1.27;;
61638;SDS011;47544;52.484;4.658;2023-07-29T00:17:17;4.68;;;1.25;;
61638;SDS011;47544;52.484;4.658;2023-07-29T00:17:32;4.47;;;1.20;;
61638;SDS011;47544;52.484;4.658;2023-07-29T00:17:43;3.85;;;1.20;;
61638;SDS011;47544;52.484;4.658;2023-07-29T00:17:54;3.53;;;1.20;;
61638;SDS011;47544;52.484;4.658;2023-07-29T00:18:05;4.65;;;1.20;;
61638;SDS011;47544;52.484;4.658;2023-07-29T00:18:16;5.15;;;1.30;;
61638;SDS011;47544;52.484;4.658;2023-07-29T00:18:27;5.47;;;1.45;;
61638;SDS011;47544;52.484;4.658;2023-07-29T00:18:38;4.50;;;1.20;;
61638;SDS011;47544;52.484;4.658;2023-07-29T00:18:50;3.90;;;1.17;;
61638;SDS011;47544;52.484;4.658;2023-07-29T00:19:02;4.03;;;1.20;;
61638;SDS011;47544;52.484;4.658;2023-07-29T00:19:13;3.65;;;1.15;;
61638;SDS011;47544;52.484;4.658;2023-07-29T00:19:24;4.70;;;1.20;;
61638;SDS011;47544;52.484;4.658;2023-07-29T00:19:35;4.78;;;1.20;;
61638;SDS011;47544;52.484;4.658;2023-07-29T00:19:47;5.60;;;1.33;;
61638;SDS011;47544;52.484;4.658;2023-07-29T00:20:01;5.40;;;1.30;;
61638;SDS011;47544;52.484;4.658;2023-07-29T00:20:13;5.03;;;1.50;;
61638;SDS011;47544;52.484;4.658;2023-07-29T00:20:25;4.35;;;1.40;;
61638;SDS011;47544;52.484;4.658;2023-07-29T00:20:36;4.20;;;1.30;;
61638;SDS011;47544;52.484;4.658;2023-07-29T00:20:47;3.72;;;1.15;;
61638;SDS011;47544;52.484;4.658;2023-07-29T00:20:59;4.85;;;1.20;;
61638;SDS011;47544;52.484;4.658;2023-07-29T00:21:10;5.43;;;1.20;;
61638;SDS011;47544;52.484;4.658;2023-07-29T00:21:21;5.20;;;1.20;;
61638;SDS011;47544;52.484;4.658;2023-07-29T00:21:32;5.15;;;1.20;;
61638;SDS011;47544;52.484;4.658;2023-07-29T00:21:43;4.80;;;1.10;;
61638;SDS011;47544;52.484;4.658;2023-07-29T00:21:55;5.68;;;1.20;;
61638;SDS011;47544;52.484;4.658;2023-07-29T00:22:06;5.03;;;1.10;;
61638;SDS011;47544;52.484;4.658;2023-07-29T00:22:20;4.05;;;1.08;;
61638;SDS011;47544;52.484;4.658;2023-07-29T00:22:31;3.70;;;1.02;;
61638;SDS011;47544;52.484;4.658;2023-07-29T00:22:41;3.15;;;1.05;;
61638;SDS011;47544;52.484;4.658;2023-07-29T00:22:54;3.60;;;1.20;;
61638;SDS011;47544;52.484;4.658;2023-07-29T00:23:08;5.18;;;1.30;;
61638;SDS011;47544;52.484;4.658;2023-07-29T00:23:19;5.28;;;1.30;;
61638;SDS011;47544;52.484;4.658;2023-07-29T00:23:30;5.53;;;1.20;;
61638;SDS011;47544;52.484;4.658;2023-07-29T00:23:41;5.07;;;1.20;;
61638;SDS011;47544;52.484;4.658;2023-07-29T00:23:52;5.28;;;1.27;;
61638;SDS011;47544;52.484;4.658;2023-07-29T00:24:03;3.78;;;1.05;;
61638;SDS011;47544;52.484;4.658;2023-07-29T00:24:14;2.72;;;0.90;;
61638;SDS011;47544;52.484;4.658;2023-07-29T00:24:29;2.88;;;0.95;;
61638;SDS011;47544;52.484;4.658;2023-07-29T00:24:40;3.50;;;1.00;;
61638;SDS011;47544;52.484;4.658;2023-07-29T00:24:51;3.60;;;1.17;;
61638;SDS011;47544;52.484;4.658;2023-07-29T00:25:02;3.65;;;1.20;;
61638;SDS011;47544;52.484;4.658;2023-07-29T00:25:14;2.67;;;1.20;;
61638;SDS011;47544;52.484;4.658;2023-07-29T00:25:34;3.05;;;1.20;;
61638;SDS011;47544;52.484;4.658;2023-07-29T00:25:45;3.33;;;1.10;;
61638;SDS011;47544;52.484;4.658;2023-07-29T00:25:56;3.42;;;0.95;;
61638;SDS011;47544;52.484;4.658;2023-07-29T00:26:17;4.90;;;1.05;;
61638;SDS011;47544;52.484;4.658;2023-07-29T00:26:29;4.65;;;1.27;;
61638;SDS011;47544;52.484;4.658;2023-07-29T00:26:40;5.18;;;1.13;;
61638;SDS011;47544;52.484;4.658;2023-07-29T00:26:51;5.57;;;1.20;;
61638;SDS011;47544;52.484;4.658;2023-07-29T00:27:03;6.40;;;1.30;;
61638;SDS011;47544;52.484;4.658;2023-07-29T00:27:14;5.35;;;1.30;;
61638;SDS011;47544;52.484;4.658;2023-07-29T00:27:25;5.63;;;1.30;;
61638;SDS011;47544;52.484;4.658;2023-07-29T00:27:36;5.45;;;1.35;;
61638;SDS011;47544;52.484;4.658;2023-07-29T00:27:47;5.20;;;1.38;;
61638;SDS011;47544;52.484;4.658;2023-07-29T00:27:58;4.90;;;1.40;;
61638;SDS011;47544;52.484;4.658;2023-07-29T00:28:13;4.85;;;1.55;;
61638;SDS011;47544;52.484;4.658;2023-07-29T00:28:27;4.18;;;1.35;;
61638;SDS011;47544;52.484;4.658;2023-07-29T00:28:38;4.43;;;1.30;;
61638;SDS011;47544;52.484;4.658;2023-07-29T00:28:49;4.90;;;1.30;;
61638;SDS011;47544;52.484;4.658;2023-07-29T00:29:00;4.88;;;1.55;;
61638;SDS011;47544;52.484;4.658;2023-07-29T00:29:11;4.97;;;1.50;;
61638;SDS011;47544;52.484;4.658;2023-07-29T00:29:22;4.22;;;1.45;;
61638;SDS011;47544;52.484;4.658;2023-07-29T00:29:34;4.15;;;1.70;;
61638;SDS011;47544;52.484;4.658;2023-07-29T00:29:47;4.38;;;1.60;;
61638;SDS011;47544;52.484;4.658;2023-07-29T00:29:58;5.53;;;1.73;;
61638;SDS011;47544;52.484;4.658;2023-07-29T00:30:09;4.32;;;1.30;;
61638;SDS011;47544;52.484;4.658;2023-07-29T00:30:20;5.70;;;1.55;;
61638;SDS011;47544;52.484;4.658;2023-07-29T00:30:33;5.30;;;1.58;;
61638;SDS011;47544;52.484;4.658;2023-07-29T00:30:48;5.50;;;1.52;;
61638;SDS011;47544;52.484;4.658;2023-07-29T00:31:01;3.08;;;1.20;;
61638;SDS011;47544;52.484;4.658;2023-07-29T00:31:12;3.45;;;1.10;;
61638;SDS011;47544;52.484;4.658;2023-07-29T00:31:25;4.65;;;1.30;;
61638;SDS011;47544;52.484;4.658;2023-07-29T00:31:37;4.72;;;1.30;;
61638;SDS011;47544;52.484;4.658;2023-07-29T00:31:48;3.53;;;1.30;;
61638;SDS011;47544;52.484;4.658;2023-07-29T00:31:59;4.03;;;1.40;;
61638;SDS011;47544;52.484;4.658;2023-07-29T00:32:10;4.35;;;1.30;;
61638;SDS011;47544;52.484;4.658;2023-07-29T00:32:23;4.95;;;1.10;;
61638;SDS011;47544;52.484;4.658;2023-07-29T00:32:35;4.18;;;1.00;;
61638;SDS011;47544;52.484;4.658;2023-07-29T00:32:46;2.90;;;1.10;;
61638;SDS011;47544;52.484;4.658;2023-07-29T00:33:13;4.32;;;1.60;;
61638;SDS011;47544;52.484;4.658;2023-07-29T00:33:25;4.95;;;1.50;;
61638;SDS011;47544;52.484;4.658;2023-07-29T00:33:36;4.43;;;1.20;;
61638;SDS011;47544;52.484;4.658;2023-07-29T00:33:49;4.25;;;1.10;;
61638;SDS011;47544;52.484;4.658;2023-07-29T00:34:04;4.85;;;1.23;;
61638;SDS011;47544;52.484;4.658;2023-07-29T00:34:15;5.63;;;1.30;;
61638;SDS011;47544;52.484;4.658;2023-07-29T00:34:30;4.63;;;1.25;;
61638;SDS011;47544;52.484;4.658;2023-07-29T00:34:41;4.65;;;1.30;;
61638;SDS011;47544;52.484;4.658;2023-07-29T00:35:09;4.55;;;1.20;;
61638;SDS011;47544;52.484;4.658;2023-07-29T00:35:24;5.00;;;1.35;;
61638;SDS011;47544;52.484;4.658;2023-07-29T00:35:36;4.10;;;1.30;;
61638;SDS011;47544;52.484;4.658;2023-07-29T00:35:47;3.95;;;1.30;;
61638;SDS011;47544;52.484;4.658;2023-07-29T00:35:58;3.50;;;1.20;;
61638;SDS011;47544;52.484;4.658;2023-07-29T00:36:13;5.72;;;1.20;;
61638;SDS011;47544;52.484;4.658;2023-07-29T00:36:24;6.13;;;1.35;;
61638;SDS011;47544;52.484;4.658;2023-07-29T00:36:35;4.40;;;1.40;;
61638;SDS011;47544;52.484;4.658;2023-07-29T00:36:46;4.60;;;1.50;;
61638;SDS011;47544;52.484;4.658;2023-07-29T00:36:58;4.40;;;1.35;;
61638;SDS011;47544;52.484;4.658;2023-07-29T00:37:10;4.55;;;1.23;;
61638;SDS011;47544;52.484;4.658;2023-07-29T00:37:21;4.15;;;1.20;;
61638;SDS011;47544;52.484;4.658;2023-07-29T00:37:32;4.53;;;1.38;;
61638;SDS011;47544;52.484;4.658;2023-07-29T00:37:44;4.05;;;1.40;;
61638;SDS011;47544;52.484;4.658;2023-07-29T00:37:55;4.00;;;1.48;;
61638;SDS011;47544;52.484;4.658;2023-07-29T00:38:06;4.10;;;1.35;;
61638;SDS011;47544;52.484;4.658;2023-07-29T00:38:17;3.42;;;1.20;;
61638;SDS011;47544;52.484;4.658;2023-07-29T00:38:30;3.95;;;1.17;;
61638;SDS011;47544;52.484;4.658;2023-07-29T00:38:41;4.53;;;1.30;;
61638;SDS011;47544;52.484;4.658;2023-07-29T00:38:55;5.22;;;1.48;;
61638;SDS011;47544;52.484;4.658;2023-07-29T00:39:07;4.70;;;1.60;;
61638;SDS011;47544;52.484;4.658;2023-07-29T00:39:22;4.05;;;1.60;;
61638;SDS011;47544;52.484;4.658;2023-07-29T00:39:33;3.50;;;1.30;;
61638;SDS011;47544;52.484;4.658;2023-07-29T00:39:44;4.47;;;1.40;;
61638;SDS011;47544;52.484;4.658;2023-07-29T00:39:55;4.50;;;1.40;;
61638;SDS011;47544;52.484;4.658;2023-07-29T00:40:09;4.65;;;1.33;;
61638;SDS011;47544;52.484;4.658;2023-07-29T00:40:24;2.63;;;0.95;;
61638;SDS011;47544;52.484;4.658;2023-07-29T00:40:44;3.80;;;1.23;;
61638;SDS011;47544;52.484;4.658;2023-07-29T00:40:55;5.07;;;1.33;;
61638;SDS011;47544;52.484;4.658;2023-07-29T00:41:08;4.10;;;1.15;;
61638;SDS011;47544;52.484;4.658;2023-07-29T00:41:23;4.32;;;1.00;;
61638;SDS011;47544;52.484;4.658;2023-07-29T00:41:36;4.25;;;1.02;;
61638;SDS011;47544;52.484;4.658;2023-07-29T00:41:47;4.13;;;1.10;;
61638;SDS011;47544;52.484;4.658;2023-07-29T00:41:58;3.33;;;1.10;;
61638;SDS011;47544;52.484;4.658;2023-07-29T00:42:09;3.40;;;1.20;;
61638;SDS011;47544;52.484;4.658;2023-07-29T00:42:20;3.65;;;1.23;;
61638;SDS011;47544;52.484;4.658;2023-07-29T00:42:32;4.00;;;1.20;;
61638;SDS011;47544;52.484;4.658;2023-07-29T00:42:43;3.50;;;1.10;;
61638;SDS011;47544;52.484;4.658;2023-07-29T00:42:54;3.58;;;1.10;;
61638;SDS011;47544;52.484;4.658;2023-07-29T00:43:05;3.58;;;1.20;;
61638;SDS011;47544;52.484;4.658;2023-07-29T00:43:17;4.55;;;1.40;;
61638;SDS011;47544;52.484;4.658;2023-07-29T00:43:28;4.53;;;1.40;;
61638;SDS011;47544;52.484;4.658;2023-07-29T00:43:39;5.50;;;1.35;;
61638;SDS011;47544;52.484;4.658;2023-07-29T00:43:50;4.68;;;1.13;;
61638;SDS011;47544;52.484;4.658;2023-07-29T00:44:02;5.05;;;1.10;;
61638;SDS011;47544;52.484;4.658;2023-07-29T00:44:13;3.95;;;1.00;;
61638;SDS011;47544;52.484;4.658;2023-07-29T00:44:24;4.50;;;1.10;;
61638;SDS011;47544;52.484;4.658;2023-07-29T00:44:36;3.17;;;0.98;;
61638;SDS011;47544;52.484;4.658;2023-07-29T00:44:47;2.17;;;0.90;;
61638;SDS011;47544;52.484;4.658;2023-07-29T00:44:58;2.58;;;1.02;;
61638;SDS011;47544;52.484;4.658;2023-07-29T00:45:09;3.42;;;1.20;;
61638;SDS011;47544;52.484;4.658;2023-07-29T00:45:20;4.03;;;1.20;;
61638;SDS011;47544;52.484;4.658;2023-07-29T00:45:32;4.88;;;1.40;;
61638;SDS011;47544;52.484;4.658;2023-07-29T00:45:43;4.93;;;1.40;;
61638;SDS011;47544;52.484;4.658;2023-07-29T00:45:55;4.57;;;1.30;;
61638;SDS011;47544;52.484;4.658;2023-07-29T00:46:11;4.72;;;1.30;;
61638;SDS011;47544;52.484;4.658;2023-07-29T00:46:23;5.47;;;1.40;;
61638;SDS011;47544;52.484;4.658;2023-07-29T00:46:36;5.70;;;1.30;;
61638;SDS011;47544;52.484;4.658;2023-07-29T00:46:49;4.07;;;1.10;;
61638;SDS011;47544;52.484;4.658;2023-07-29T00:47:00;3.58;;;1.15;;
61638;SDS011;47544;52.484;4.658;2023-07-29T00:47:13;4.80;;;1.25;;
61638;SDS011;47544;52.484;4.658;2023-07-29T00:47:26;4.50;;;1.27;;
61638;SDS011;47544;52.484;4.658;2023-07-29T00:47:38;3.67;;;1.15;;
61638;SDS011;47544;52.484;4.658;2023-07-29T00:47:49;3.45;;;1.20;;
61638;SDS011;47544;52.484;4.658;2023-07-29T00:48:00;4.00;;;1.30;;
61638;SDS011;47544;52.484;4.658;2023-07-29T00:48:12;3.70;;;1.20;;
61638;SDS011;47544;52.484;4.658;2023-07-29T00:48:24;3.78;;;1.10;;
61638;SDS011;47544;52.484;4.658;2023-07-29T00:48:35;3.38;;;1.00;;
61638;SDS011;47544;52.484;4.658;2023-07-29T00:48:50;3.60;;;1.10;;
61638;SDS011;47544;52.484;4.658;2023-07-29T00:49:02;5.18;;;1.42;;
61638;SDS011;47544;52.484;4.658;2023-07-29T00:49:15;5.82;;;1.67;;
61638;SDS011;47544;52.484;4.658;2023-07-29T00:49:27;5.75;;;1.58;;
61638;SDS011;47544;52.484;4.658;2023-07-29T00:49:38;4.88;;;1.27;;
61638;SDS011;47544;52.484;4.658;2023-07-29T00:49:50;3.80;;;1.10;;
61638;SDS011;47544;52.484;4.658;2023-07-29T00:50:01;4.20;;;1.30;;
61638;SDS011;47544;52.484;4.658;2023-07-29T00:50:14;4.60;;;1.33;;
61638;SDS011;47544;52.484;4.658;2023-07-29T00:50:26;4.10;;;1.40;;
61638;SDS011;47544;52.484;4.658;2023-07-29T00:50:39;4.32;;;1.65;;
61638;SDS011;47544;52.484;4.658;2023-07-29T00:50:50;4.03;;;1.50;;
61638;SDS011;47544;52.484;4.658;2023-07-29T00:51:03;4.70;;;1.65;;
61638;SDS011;47544;52.484;4.658;2023-07-29T00:51:14;4.97;;;1.60;;
61638;SDS011;47544;52.484;4.658;2023-07-29T00:51:26;4.38;;;1.42;;
61638;SDS011;47544;52.484;4.658;2023-07-29T00:51:37;4.50;;;1.23;;
61638;SDS011;47544;52.484;4.658;2023-07-29T00:51:51;4.68;;;1.40;;
61638;SDS011;47544;52.484;4.658;2023-07-29T00:52:03;4.60;;;1.33;;
61638;SDS011;47544;52.484;4.658;2023-07-29T00:52:15;5.15;;;1.40;;
61638;SDS011;47544;52.484;4.658;2023-07-29T00:52:26;4.47;;;1.20;;
61638;SDS011;47544;52.484;4.658;2023-07-29T00:52:40;4.88;;;1.17;;
61638;SDS011;47544;52.484;4.658;2023-07-29T00:52:51;4.38;;;1.10;;
61638;SDS011;47544;52.484;4.658;2023-07-29T00:53:02;4.22;;;1.10;;
61638;SDS011;47544;52.484;4.658;2023-07-29T00:53:14;3.50;;;1.10;;
61638;SDS011;47544;52.484;4.658;2023-07-29T00:53:25;3.88;;;1.30;;
61638;SDS011;47544;52.484;4.658;2023-07-29T00:53:36;3.97;;;1.38;;
61638;SDS011;47544;52.484;4.658;2023-07-29T00:53:47;5.78;;;1.45;;
61638;SDS011;47544;52.484;4.658;2023-07-29T00:53:59;5.30;;;1.38;;
61638;SDS011;47544;52.484;4.658;2023-07-29T00:54:10;4.53;;;1.20;;
61638;SDS011;47544;52.484;4.658;2023-07-29T00:54:22;3.70;;;1.10;;
61638;SDS011;47544;52.484;4.658;2023-07-29T00:54:35;4.20;;;1.08;;
61638;SDS011;47544;52.484;4.658;2023-07-29T00:54:46;3.95;;;1.10;;
61638;SDS011;47544;52.484;4.658;2023-07-29T00:54:57;4.03;;;1.25;;
61638;SDS011;47544;52.484;4.658;2023-07-29T00:55:09;4.05;;;1.23;;
61638;SDS011;47544;52.484;4.658;2023-07-29T00:55:20;4.53;;;1.27;;
61638;SDS011;47544;52.484;4.658;2023-07-29T00:55:31;3.75;;;1.05;;
61638;SDS011;47544;52.484;4.658;2023-07-29T00:55:42;3.13;;;0.95;;
61638;SDS011;47544;52.484;4.658;2023-07-29T00:55:57;2.92;;;1.05;;
61638;SDS011;47544;52.484;4.658;2023-07-29T00:56:08;2.78;;;1.20;;
61638;SDS011;47544;52.484;4.658;2023-07-29T00:56:21;4.25;;;1.30;;
61638;SDS011;47544;52.484;4.658;2023-07-29T00:56:32;5.13;;;1.20;;
61638;SDS011;47544;52.484;4.658;2023-07-29T00:56:43;5.88;;;1.25;;
61638;SDS011;47544;52.484;4.658;2023-07-29T00:56:54;4.75;;;1.30;;
61638;SDS011;47544;52.484;4.658;2023-07-29T00:57:05;4.25;;;1.35;;
61638;SDS011;47544;52.484;4.658;2023-07-29T00:57:17;5.10;;;1.40;;
61638;SDS011;47544;52.484;4.658;2023-07-29T00:57:29;5.10;;;1.50;;
61638;SDS011;47544;52.484;4.658;2023-07-29T00:57:41;5.10;;;1.45;;
61638;SDS011;47544;52.484;4.658;2023-07-29T00:57:54;3.40;;;1.13;;
61638;SDS011;47544;52.484;4.658;2023-07-29T00:58:06;3.22;;;1.00;;
61638;SDS011;47544;52.484;4.658;2023-07-29T00:58:17;3.05;;;0.88;;
61638;SDS011;47544;52.484;4.658;2023-07-29T00:58:29;4.07;;;1.10;;
61638;SDS011;47544;52.484;4.658;2023-07-29T00:58:40;4.78;;;1.20;;
61638;SDS011;47544;52.484;4.658;2023-07-29T00:58:51;5.28;;;1.25;;
61638;SDS011;47544;52.484;4.658;2023-07-29T00:59:07;4.70;;;1.60;;
61638;SDS011;47544;52.484;4.658;2023-07-29T00:59:18;3.78;;;1.63;;
61638;SDS011;47544;52.484;4.658;2023-07-29T00:59:29;4.47;;;1.45;;
61638;SDS011;47544;52.484;4.658;2023-07-29T00:59:42;4.85;;;1.40;;
61638;SDS011;47544;52.484;4.658;2023-07-29T00:59:55;5.25;;;1.45;;
61638;SDS011;47544;52.484;4.658;2023-07-29T01:00:06;6.05;;;1.42;;
61638;SDS011;47544;52.484;4.658;2023-07-29T01:00:20;5.70;;;1.50;;
61638;SDS011;47544;52.484;4.658;2023-07-29T01:00:31;3.65;;;1.45;;
61638;SDS011;47544;52.484;4.658;2023-07-29T01:00:43;4.00;;;1.40;;
61638;SDS011;47544;52.484;4.658;2023-07-29T01:00:54;3.95;;;1.40;;
61638;SDS011;47544;52.484;4.658;2023-07-29T01:01:05;3.53;;;1.20;;
61638;SDS011;47544;52.484;4.658;2023-07-29T01:01:16;3.22;;;1.05;;
61638;SDS011;47544;52.484;4.658;2023-07-29T01:01:28;3.03;;;0.90;;
61638;SDS011;47544;52.484;4.658;2023-07-29T01:01:39;3.10;;;0.93;;
61638;SDS011;47544;52.484;4.658;2023-07-29T01:01:51;5.00;;;1.35;;
61638;SDS011;47544;52.484;4.658;2023-07-29T01:02:03;4.80;;;1.35;;
61638;SDS011;47544;52.484;4.658;2023-07-29T01:02:14;4.90;;;1.30;;
61638;SDS011;47544;52.484;4.658;2023-07-29T01:02:25;4.25;;;1.02;;
61638;SDS011;47544;52.484;4.658;2023-07-29T01:02:37;4.45;;;1.10;;
61638;SDS011;47544;52.484;4.658;2023-07-29T01:02:48;4.70;;;1.27;;
61638;SDS011;47544;52.484;4.658;2023-07-29T01:03:04;4.55;;;1.33;;
61638;SDS011;47544;52.484;4.658;2023-07-29T01:03:16;4.13;;;1.40;;
61638;SDS011;47544;52.484;4.658;2023-07-29T01:03:27;3.78;;;1.33;;
61638;SDS011;47544;52.484;4.658;2023-07-29T01:03:39;4.68;;;1.40;;
61638;SDS011;47544;52.484;4.658;2023-07-29T01:03:51;5.55;;;1.40;;
61638;SDS011;47544;52.484;4.658;2023-07-29T01:04:02;4.75;;;1.35;;
61638;SDS011;47544;52.484;4.658;2023-07-29T01:04:16;3.58;;;1.20;;
61638;SDS011;47544;52.484;4.658;2023-07-29T01:04:27;3.42;;;1.20;;
61638;SDS011;47544;52.484;4.658;2023-07-29T01:04:38;5.00;;;1.30;;
61638;SDS011;47544;52.484;4.658;2023-07-29T01:04:51;6.45;;;1.35;;
61638;SDS011;47544;52.484;4.658;2023-07-29T01:05:02;5.75;;;1.20;;
61638;SDS011;47544;52.484;4.658;2023-07-29T01:05:15;4.78;;;1.17;;
61638;SDS011;47544;52.484;4.658;2023-07-29T01:05:27;4.88;;;1.25;;
61638;SDS011;47544;52.484;4.658;2023-07-29T01:05:43;4.25;;;1.15;;
61638;SDS011;47544;52.484;4.658;2023-07-29T01:06:01;3.30;;;1.10;;
61638;SDS011;47544;52.484;4.658;2023-07-29T01:06:19;3.53;;;1.08;;
61638;SDS011;47544;52.484;4.658;2023-07-29T01:06:34;4.28;;;1.25;;
61638;SDS011;47544;52.484;4.658;2023-07-29T01:06:53;4.63;;;1.30;;
61638;SDS011;47544;52.484;4.658;2023-07-29T01:07:07;4.38;;;1.25;;
61638;SDS011;47544;52.484;4.658;2023-07-29T01:07:20;4.20;;;1.20;;
61638;SDS011;47544;52.484;4.658;2023-07-29T01:07:33;3.65;;;1.00;;
61638;SDS011;47544;52.484;4.658;2023-07-29T01:07:49;3.92;;;1.10;;
61638;SDS011;47544;52.484;4.658;2023-07-29T01:08:09;4.88;;;1.42;;
61638;SDS011;47544;52.484;4.658;2023-07-29T01:08:26;4.55;;;1.50;;
61638;SDS011;47544;52.484;4.658;2023-07-29T01:08:44;5.45;;;1.40;;
61638;SDS011;47544;52.484;4.658;2023-07-29T01:08:59;5.00;;;1.33;;
61638;SDS011;47544;52.484;4.658;2023-07-29T01:09:14;4.93;;;1.50;;
61638;SDS011;47544;52.484;4.658;2023-07-29T01:09:30;4.43;;;1.30;;
61638;SDS011;47544;52.484;4.658;2023-07-29T01:09:48;3.70;;;1.25;;
61638;SDS011;47544;52.484;4.658;2023-07-29T01:10:05;3.85;;;1.30;;
61638;SDS011;47544;52.484;4.658;2023-07-29T01:10:21;4.68;;;1.35;;
61638;SDS011;47544;52.484;4.658;2023-07-29T01:10:37;5.03;;;1.38;;
61638;SDS011;47544;52.484;4.658;2023-07-29T01:11:03;3.65;;;1.15;;
61638;SDS011;47544;52.484;4.658;2023-07-29T01:11:27;5.90;;;1.60;;
61638;SDS011;47544;52.484;4.658;2023-07-29T01:11:44;5.78;;;1.58;;
61638;SDS011;47544;52.484;4.658;2023-07-29T01:12:01;5.55;;;1.48;;
61638;SDS011;47544;52.484;4.658;2023-07-29T01:12:18;4.75;;;1.30;;
61638;SDS011;47544;52.484;4.658;2023-07-29T01:12:34;4.82;;;1.40;;
61638;SDS011;47544;52.484;4.658;2023-07-29T01:12:48;5.57;;;1.50;;
61638;SDS011;47544;52.484;4.658;2023-07-29T01:13:06;5.05;;;1.40;;
61638;SDS011;47544;52.484;4.658;2023-07-29T01:13:24;4.15;;;1.30;;
61638;SDS011;47544;52.484;4.658;2023-07-29T01:13:41;4.50;;;1.55;;
61638;SDS011;47544;52.484;4.658;2023-07-29T01:13:53;5.32;;;1.77;;
61638;SDS011;47544;52.484;4.658;2023-07-29T01:14:09;5.65;;;1.75;;
61638;SDS011;47544;52.484;4.658;2023-07-29T01:14:23;6.30;;;1.70;;
61638;SDS011;47544;52.484;4.658;2023-07-29T01:14:38;5.85;;;1.60;;